sensor_id;sensor_type;location;lat;lon;timestamp;temperature;humidity
36424;DHT22;22458;45.328;9.514;2023-06-14T00:00:52;25.30;81.80
36424;DHT22;22458;45.328;9.514;2023-06-14T00:03:18;25.20;81.80
36424;DHT22;22458;45.328;9.514;2023-06-14T00:05:48;25.20;81.90
36424;DHT22;22458;45.328;9.514;2023-06-14T00:08:14;25.20;82.00
36424;DHT22;22458;45.328;9.514;2023-06-14T00:10:40;25.20;82.10
36424;DHT22;22458;45.328;9.514;2023-06-14T00:13:10;25.20;82.20
36424;DHT22;22458;45.328;9.514;2023-06-14T00:15:37;25.20;82.30
36424;DHT22;22458;45.328;9.514;2023-06-14T00:18:03;25.20;82.40
36424;DHT22;22458;45.328;9.514;2023-06-14T00:20:30;25.20;82.40
36424;DHT22;22458;45.328;9.514;2023-06-14T00:23:01;25.20;82.50
36424;DHT22;22458;45.328;9.514;2023-06-14T00:25:27;25.20;82.60
36424;DHT22;22458;45.328;9.514;2023-06-14T00:27:54;25.10;82.60
36424;DHT22;22458;45.328;9.514;2023-06-14T00:30:20;25.10;82.80
36424;DHT22;22458;45.328;9.514;2023-06-14T00:32:47;25.10;83.00
36424;DHT22;22458;45.328;9.514;2023-06-14T00:35:13;25.10;83.10
36424;DHT22;22458;45.328;9.514;2023-06-14T00:37:39;25.00;83.70
36424;DHT22;22458;45.328;9.514;2023-06-14T00:40:05;25.00;83.10
36424;DHT22;22458;45.328;9.514;2023-06-14T00:42:32;25.00;83.20
36424;DHT22;22458;45.328;9.514;2023-06-14T00:44:59;25.00;83.20
36424;DHT22;22458;45.328;9.514;2023-06-14T00:47:24;25.00;83.20
36424;DHT22;22458;45.328;9.514;2023-06-14T00:49:51;25.00;83.30
36424;DHT22;22458;45.328;9.514;2023-06-14T00:52:17;25.00;83.30
36424;DHT22;22458;45.328;9.514;2023-06-14T00:54:44;25.00;83.30
36424;DHT22;22458;45.328;9.514;2023-06-14T00:57:11;25.00;83.40
36424;DHT22;22458;45.328;9.514;2023-06-14T00:59:48;25.00;83.40
36424;DHT22;22458;45.328;9.514;2023-06-14T01:02:14;24.90;83.40
36424;DHT22;22458;45.328;9.514;2023-06-14T01:04:41;24.90;83.50
36424;DHT22;22458;45.328;9.514;2023-06-14T01:15:31;24.50;83.10
36424;DHT22;22458;45.328;9.514;2023-06-14T01:17:57;24.50;83.00
36424;DHT22;22458;45.328;9.514;2023-06-14T01:20:30;24.50;82.80
36424;DHT22;22458;45.328;9.514;2023-06-14T01:22:56;24.60;82.70
36424;DHT22;22458;45.328;9.514;2023-06-14T01:25:23;24.50;82.60
36424;DHT22;22458;45.328;9.514;2023-06-14T01:27:53;24.50;82.60
36424;DHT22;22458;45.328;9.514;2023-06-14T01:30:21;24.50;82.50
36424;DHT22;22458;45.328;9.514;2023-06-14T01:32:49;24.50;82.50
36424;DHT22;22458;45.328;9.514;2023-06-14T01:35:16;24.50;82.60
36424;DHT22;22458;45.328;9.514;2023-06-14T01:37:42;24.40;82.60
36424;DHT22;22458;45.328;9.514;2023-06-14T01:40:10;24.40;82.60
36424;DHT22;22458;45.328;9.514;2023-06-14T01:42:38;24.40;82.60
36424;DHT22;22458;45.328;9.514;2023-06-14T01:45:07;24.40;82.70
36424;DHT22;22458;45.328;9.514;2023-06-14T01:47:35;24.40;82.80
36424;DHT22;22458;45.328;9.514;2023-06-14T01:50:05;24.40;82.70
36424;DHT22;22458;45.328;9.514;2023-06-14T01:52:31;24.40;82.80
36424;DHT22;22458;45.328;9.514;2023-06-14T01:54:57;24.40;82.70
36424;DHT22;22458;45.328;9.514;2023-06-14T01:57:24;24.40;82.70
36424;DHT22;22458;45.328;9.514;2023-06-14T01:59:50;24.40;82.70
36424;DHT22;22458;45.328;9.514;2023-06-14T02:02:16;24.40;82.70
36424;DHT22;22458;45.328;9.514;2023-06-14T02:04:42;24.40;82.60
36424;DHT22;22458;45.328;9.514;2023-06-14T02:07:08;24.40;82.60
36424;DHT22;22458;45.328;9.514;2023-06-14T02:09:34;24.30;82.60
36424;DHT22;22458;45.328;9.514;2023-06-14T02:12:00;24.30;82.60
36424;DHT22;22458;45.328;9.514;2023-06-14T02:14:26;24.30;82.60
36424;DHT22;22458;45.328;9.514;2023-06-14T02:16:52;24.20;82.70
36424;DHT22;22458;45.328;9.514;2023-06-14T02:19:19;24.10;82.50
36424;DHT22;22458;45.328;9.514;2023-06-14T02:21:46;24.10;82.40
36424;DHT22;22458;45.328;9.514;2023-06-14T02:24:13;24.10;82.30
36424;DHT22;22458;45.328;9.514;2023-06-14T02:26:39;24.10;82.30
36424;DHT22;22458;45.328;9.514;2023-06-14T02:29:05;24.00;82.30
36424;DHT22;22458;45.328;9.514;2023-06-14T02:31:32;24.00;83.00
36424;DHT22;22458;45.328;9.514;2023-06-14T02:33:58;24.00;82.50
36424;DHT22;22458;45.328;9.514;2023-06-14T02:36:24;24.00;82.40
36424;DHT22;22458;45.328;9.514;2023-06-14T02:38:50;24.00;82.30
36424;DHT22;22458;45.328;9.514;2023-06-14T02:41:16;24.00;82.20
36424;DHT22;22458;45.328;9.514;2023-06-14T02:43:41;24.00;82.30
36424;DHT22;22458;45.328;9.514;2023-06-14T02:46:07;24.00;82.30
36424;DHT22;22458;45.328;9.514;2023-06-14T02:48:33;24.00;82.20
36424;DHT22;22458;45.328;9.514;2023-06-14T02:50:59;23.90;82.20
36424;DHT22;22458;45.328;9.514;2023-06-14T02:53:24;23.80;82.20
36424;DHT22;22458;45.328;9.514;2023-06-14T02:55:50;23.80;82.20
36424;DHT22;22458;45.328;9.514;2023-06-14T02:58:17;23.80;82.10
36424;DHT22;22458;45.328;9.514;2023-06-14T03:00:44;23.90;82.10
36424;DHT22;22458;45.328;9.514;2023-06-14T03:03:10;23.90;81.90
36424;DHT22;22458;45.328;9.514;2023-06-14T03:05:44;23.90;81.80
36424;DHT22;22458;45.328;9.514;2023-06-14T03:08:14;23.90;81.70
36424;DHT22;22458;45.328;9.514;2023-06-14T03:10:43;23.90;81.70
36424;DHT22;22458;45.328;9.514;2023-06-14T03:13:09;23.90;81.80
36424;DHT22;22458;45.328;9.514;2023-06-14T03:15:36;23.90;81.80
36424;DHT22;22458;45.328;9.514;2023-06-14T03:18:02;23.90;81.90
36424;DHT22;22458;45.328;9.514;2023-06-14T03:20:29;23.80;81.90
36424;DHT22;22458;45.328;9.514;2023-06-14T03:23:00;23.90;82.00
36424;DHT22;22458;45.328;9.514;2023-06-14T03:25:27;23.90;82.00
36424;DHT22;22458;45.328;9.514;2023-06-14T03:27:56;23.90;82.10
36424;DHT22;22458;45.328;9.514;2023-06-14T03:30:22;23.90;82.10
36424;DHT22;22458;45.328;9.514;2023-06-14T03:32:51;23.80;82.00
36424;DHT22;22458;45.328;9.514;2023-06-14T03:35:19;23.80;82.20
36424;DHT22;22458;45.328;9.514;2023-06-14T03:37:47;23.70;82.40
36424;DHT22;22458;45.328;9.514;2023-06-14T03:40:15;23.60;82.60
36424;DHT22;22458;45.328;9.514;2023-06-14T03:42:44;23.60;82.90
36424;DHT22;22458;45.328;9.514;2023-06-14T03:45:11;23.50;83.00
36424;DHT22;22458;45.328;9.514;2023-06-14T03:47:36;23.50;83.10
36424;DHT22;22458;45.328;9.514;2023-06-14T03:50:03;23.50;83.40
36424;DHT22;22458;45.328;9.514;2023-06-14T03:52:30;23.40;83.60
36424;DHT22;22458;45.328;9.514;2023-06-14T03:54:57;23.30;83.90
36424;DHT22;22458;45.328;9.514;2023-06-14T03:57:25;23.30;84.10
36424;DHT22;22458;45.328;9.514;2023-06-14T03:59:53;23.30;84.30
36424;DHT22;22458;45.328;9.514;2023-06-14T04:02:18;23.20;84.50
36424;DHT22;22458;45.328;9.514;2023-06-14T04:04:45;23.20;84.70
36424;DHT22;22458;45.328;9.514;2023-06-14T04:07:12;23.20;85.00
36424;DHT22;22458;45.328;9.514;2023-06-14T04:09:38;23.20;85.30
36424;DHT22;22458;45.328;9.514;2023-06-14T04:12:05;23.20;85.60
36424;DHT22;22458;45.328;9.514;2023-06-14T04:14:32;23.20;85.60
36424;DHT22;22458;45.328;9.514;2023-06-14T04:16:59;23.10;85.70
36424;DHT22;22458;45.328;9.514;2023-06-14T04:19:25;23.10;85.80
36424;DHT22;22458;45.328;9.514;2023-06-14T04:21:52;23.10;85.90
36424;DHT22;22458;45.328;9.514;2023-06-14T04:24:18;23.10;85.80
36424;DHT22;22458;45.328;9.514;2023-06-14T04:26:48;23.10;85.60
36424;DHT22;22458;45.328;9.514;2023-06-14T04:29:16;23.00;85.60
36424;DHT22;22458;45.328;9.514;2023-06-14T04:31:46;23.00;85.50
36424;DHT22;22458;45.328;9.514;2023-06-14T04:34:12;23.00;85.50
36424;DHT22;22458;45.328;9.514;2023-06-14T04:36:47;22.90;85.50
36424;DHT22;22458;45.328;9.514;2023-06-14T04:39:19;23.00;85.60
36424;DHT22;22458;45.328;9.514;2023-06-14T04:41:49;22.90;85.70
36424;DHT22;22458;45.328;9.514;2023-06-14T04:44:19;22.90;85.80
36424;DHT22;22458;45.328;9.514;2023-06-14T04:46:47;22.90;85.80
36424;DHT22;22458;45.328;9.514;2023-06-14T04:49:19;22.90;85.80
36424;DHT22;22458;45.328;9.514;2023-06-14T04:51:45;22.90;86.00
36424;DHT22;22458;45.328;9.514;2023-06-14T04:54:12;22.90;85.90
36424;DHT22;22458;45.328;9.514;2023-06-14T04:56:40;22.90;86.00
36424;DHT22;22458;45.328;9.514;2023-06-14T04:59:08;22.90;86.00
36424;DHT22;22458;45.328;9.514;2023-06-14T05:01:35;22.90;85.90
36424;DHT22;22458;45.328;9.514;2023-06-14T05:04:01;22.90;85.90
36424;DHT22;22458;45.328;9.514;2023-06-14T05:06:28;22.90;85.70
36424;DHT22;22458;45.328;9.514;2023-06-14T05:08:54;22.90;85.70
36424;DHT22;22458;45.328;9.514;2023-06-14T05:11:20;22.90;85.80
36424;DHT22;22458;45.328;9.514;2023-06-14T05:13:46;22.90;85.80
36424;DHT22;22458;45.328;9.514;2023-06-14T05:16:12;22.90;85.80
36424;DHT22;22458;45.328;9.514;2023-06-14T05:18:42;22.90;85.70
36424;DHT22;22458;45.328;9.514;2023-06-14T05:21:07;22.90;85.80
36424;DHT22;22458;45.328;9.514;2023-06-14T05:23:34;22.90;85.90
36424;DHT22;22458;45.328;9.514;2023-06-14T05:26:00;22.90;85.90
36424;DHT22;22458;45.328;9.514;2023-06-14T05:28:28;23.00;86.00
36424;DHT22;22458;45.328;9.514;2023-06-14T05:30:53;23.00;86.10
36424;DHT22;22458;45.328;9.514;2023-06-14T05:33:19;23.00;86.10
36424;DHT22;22458;45.328;9.514;2023-06-14T05:35:45;23.00;86.20
36424;DHT22;22458;45.328;9.514;2023-06-14T05:38:11;23.00;86.20
36424;DHT22;22458;45.328;9.514;2023-06-14T05:40:36;22.90;86.10
36424;DHT22;22458;45.328;9.514;2023-06-14T05:43:02;23.00;86.40
36424;DHT22;22458;45.328;9.514;2023-06-14T05:45:28;23.00;86.60
36424;DHT22;22458;45.328;9.514;2023-06-14T05:47:53;23.00;86.80
36424;DHT22;22458;45.328;9.514;2023-06-14T05:50:20;23.00;87.00
36424;DHT22;22458;45.328;9.514;2023-06-14T05:52:46;22.90;87.10
36424;DHT22;22458;45.328;9.514;2023-06-14T05:55:12;22.90;87.20
36424;DHT22;22458;45.328;9.514;2023-06-14T05:57:38;22.90;87.40
36424;DHT22;22458;45.328;9.514;2023-06-14T06:00:05;22.90;87.40
36424;DHT22;22458;45.328;9.514;2023-06-14T06:02:43;22.90;87.50
36424;DHT22;22458;45.328;9.514;2023-06-14T06:05:12;22.80;87.50
36424;DHT22;22458;45.328;9.514;2023-06-14T06:07:38;22.90;87.60
36424;DHT22;22458;45.328;9.514;2023-06-14T06:10:08;22.90;87.60
36424;DHT22;22458;45.328;9.514;2023-06-14T06:12:34;22.90;87.60
36424;DHT22;22458;45.328;9.514;2023-06-14T06:15:00;22.90;87.60
36424;DHT22;22458;45.328;9.514;2023-06-14T06:17:26;22.90;87.90
36424;DHT22;22458;45.328;9.514;2023-06-14T06:19:52;22.90;88.00
36424;DHT22;22458;45.328;9.514;2023-06-14T06:22:17;22.90;87.90
36424;DHT22;22458;45.328;9.514;2023-06-14T06:24:43;23.00;87.70
36424;DHT22;22458;45.328;9.514;2023-06-14T06:27:09;23.00;87.50
36424;DHT22;22458;45.328;9.514;2023-06-14T06:29:36;23.10;87.40
36424;DHT22;22458;45.328;9.514;2023-06-14T06:32:02;23.10;87.40
36424;DHT22;22458;45.328;9.514;2023-06-14T06:34:28;23.10;87.40
36424;DHT22;22458;45.328;9.514;2023-06-14T06:36:53;23.20;87.40
36424;DHT22;22458;45.328;9.514;2023-06-14T06:39:19;23.10;87.20
36424;DHT22;22458;45.328;9.514;2023-06-14T06:41:45;23.10;87.30
36424;DHT22;22458;45.328;9.514;2023-06-14T06:44:10;23.10;87.40
36424;DHT22;22458;45.328;9.514;2023-06-14T06:46:38;23.10;87.50
36424;DHT22;22458;45.328;9.514;2023-06-14T06:49:08;23.10;87.70
36424;DHT22;22458;45.328;9.514;2023-06-14T06:51:35;23.10;87.60
36424;DHT22;22458;45.328;9.514;2023-06-14T06:54:04;23.20;87.50
36424;DHT22;22458;45.328;9.514;2023-06-14T06:56:31;23.20;87.40
36424;DHT22;22458;45.328;9.514;2023-06-14T06:58:57;23.30;87.30
36424;DHT22;22458;45.328;9.514;2023-06-14T07:01:23;23.30;87.30
36424;DHT22;22458;45.328;9.514;2023-06-14T07:03:49;23.30;87.40
36424;DHT22;22458;45.328;9.514;2023-06-14T07:06:15;23.30;87.50
36424;DHT22;22458;45.328;9.514;2023-06-14T07:08:44;23.30;87.40
36424;DHT22;22458;45.328;9.514;2023-06-14T07:11:10;23.40;87.30
36424;DHT22;22458;45.328;9.514;2023-06-14T07:13:35;23.40;87.20
36424;DHT22;22458;45.328;9.514;2023-06-14T07:16:04;23.30;87.30
36424;DHT22;22458;45.328;9.514;2023-06-14T07:18:30;23.30;87.30
36424;DHT22;22458;45.328;9.514;2023-06-14T07:20:56;23.40;87.40
36424;DHT22;22458;45.328;9.514;2023-06-14T07:23:23;23.40;87.30
36424;DHT22;22458;45.328;9.514;2023-06-14T07:25:48;23.40;87.30
36424;DHT22;22458;45.328;9.514;2023-06-14T07:28:15;23.40;87.20
36424;DHT22;22458;45.328;9.514;2023-06-14T07:30:41;23.50;87.30
36424;DHT22;22458;45.328;9.514;2023-06-14T07:33:07;23.60;87.10
36424;DHT22;22458;45.328;9.514;2023-06-14T07:35:34;23.60;86.80
36424;DHT22;22458;45.328;9.514;2023-06-14T07:38:00;23.70;86.80
36424;DHT22;22458;45.328;9.514;2023-06-14T07:40:25;23.70;86.70
36424;DHT22;22458;45.328;9.514;2023-06-14T07:42:51;23.80;86.70
36424;DHT22;22458;45.328;9.514;2023-06-14T07:45:19;23.80;86.40
36424;DHT22;22458;45.328;9.514;2023-06-14T07:47:45;23.90;86.10
36424;DHT22;22458;45.328;9.514;2023-06-14T07:50:11;23.90;85.90
36424;DHT22;22458;45.328;9.514;2023-06-14T07:52:37;24.00;85.80
36424;DHT22;22458;45.328;9.514;2023-06-14T07:55:04;23.90;85.70
36424;DHT22;22458;45.328;9.514;2023-06-14T07:57:29;24.00;85.90
36424;DHT22;22458;45.328;9.514;2023-06-14T07:59:55;24.00;85.90
36424;DHT22;22458;45.328;9.514;2023-06-14T08:02:21;24.00;85.80
36424;DHT22;22458;45.328;9.514;2023-06-14T08:04:47;24.00;85.70
36424;DHT22;22458;45.328;9.514;2023-06-14T08:07:14;24.00;85.60
36424;DHT22;22458;45.328;9.514;2023-06-14T08:09:40;24.10;85.50
36424;DHT22;22458;45.328;9.514;2023-06-14T08:12:08;24.10;85.30
36424;DHT22;22458;45.328;9.514;2023-06-14T08:14:35;24.20;85.10
36424;DHT22;22458;45.328;9.514;2023-06-14T08:17:01;24.20;84.80
36424;DHT22;22458;45.328;9.514;2023-06-14T08:19:27;24.20;84.80
36424;DHT22;22458;45.328;9.514;2023-06-14T08:21:52;24.20;84.80
36424;DHT22;22458;45.328;9.514;2023-06-14T08:24:23;24.30;84.80
36424;DHT22;22458;45.328;9.514;2023-06-14T08:26:55;24.30;84.70
36424;DHT22;22458;45.328;9.514;2023-06-14T08:29:22;24.30;84.70
36424;DHT22;22458;45.328;9.514;2023-06-14T08:31:47;24.30;84.50
36424;DHT22;22458;45.328;9.514;2023-06-14T08:34:13;24.30;84.30
36424;DHT22;22458;45.328;9.514;2023-06-14T08:36:40;24.30;84.30
36424;DHT22;22458;45.328;9.514;2023-06-14T08:39:06;24.40;84.30
36424;DHT22;22458;45.328;9.514;2023-06-14T08:41:34;24.40;84.00
36424;DHT22;22458;45.328;9.514;2023-06-14T08:44:01;24.50;83.60
36424;DHT22;22458;45.328;9.514;2023-06-14T08:46:26;24.50;83.40
36424;DHT22;22458;45.328;9.514;2023-06-14T08:48:55;24.50;83.30
36424;DHT22;22458;45.328;9.514;2023-06-14T08:51:25;24.50;83.30
36424;DHT22;22458;45.328;9.514;2023-06-14T08:53:54;24.60;83.50
36424;DHT22;22458;45.328;9.514;2023-06-14T08:56:27;24.60;83.40
36424;DHT22;22458;45.328;9.514;2023-06-14T08:58:58;24.60;83.30
36424;DHT22;22458;45.328;9.514;2023-06-14T09:01:26;24.70;83.40
36424;DHT22;22458;45.328;9.514;2023-06-14T09:03:52;24.70;83.60
36424;DHT22;22458;45.328;9.514;2023-06-14T09:06:21;24.80;83.70
36424;DHT22;22458;45.328;9.514;2023-06-14T09:08:48;24.90;83.50
36424;DHT22;22458;45.328;9.514;2023-06-14T09:11:17;24.90;83.50
36424;DHT22;22458;45.328;9.514;2023-06-14T09:13:45;25.00;83.40
36424;DHT22;22458;45.328;9.514;2023-06-14T09:16:12;25.10;83.30
36424;DHT22;22458;45.328;9.514;2023-06-14T09:18:43;25.00;83.00
36424;DHT22;22458;45.328;9.514;2023-06-14T09:21:11;25.10;82.90
36424;DHT22;22458;45.328;9.514;2023-06-14T09:23:41;25.10;83.10
36424;DHT22;22458;45.328;9.514;2023-06-14T09:26:08;25.20;83.00
36424;DHT22;22458;45.328;9.514;2023-06-14T09:28:36;25.20;82.80
36424;DHT22;22458;45.328;9.514;2023-06-14T09:31:03;25.30;82.70
36424;DHT22;22458;45.328;9.514;2023-06-14T09:33:30;25.40;82.70
36424;DHT22;22458;45.328;9.514;2023-06-14T09:35:56;25.50;82.70
36424;DHT22;22458;45.328;9.514;2023-06-14T09:38:21;25.50;82.50
36424;DHT22;22458;45.328;9.514;2023-06-14T09:40:47;25.60;82.20
36424;DHT22;22458;45.328;9.514;2023-06-14T09:43:15;25.70;81.70
36424;DHT22;22458;45.328;9.514;2023-06-14T09:45:42;25.80;81.30
36424;DHT22;22458;45.328;9.514;2023-06-14T09:48:11;25.80;81.10
36424;DHT22;22458;45.328;9.514;2023-06-14T09:50:39;25.90;81.20
36424;DHT22;22458;45.328;9.514;2023-06-14T09:53:10;26.00;81.20
36424;DHT22;22458;45.328;9.514;2023-06-14T09:55:37;26.10;80.90
36424;DHT22;22458;45.328;9.514;2023-06-14T09:58:07;26.20;81.50
36424;DHT22;22458;45.328;9.514;2023-06-14T10:00:34;26.30;80.60
36424;DHT22;22458;45.328;9.514;2023-06-14T10:03:24;26.40;80.40
36424;DHT22;22458;45.328;9.514;2023-06-14T10:05:51;26.50;80.00
36424;DHT22;22458;45.328;9.514;2023-06-14T10:08:19;26.50;79.90
36424;DHT22;22458;45.328;9.514;2023-06-14T10:10:49;26.60;79.40
36424;DHT22;22458;45.328;9.514;2023-06-14T10:13:16;26.60;79.10
36424;DHT22;22458;45.328;9.514;2023-06-14T10:15:58;26.70;78.70
36424;DHT22;22458;45.328;9.514;2023-06-14T10:24:13;26.90;76.70
36424;DHT22;22458;45.328;9.514;2023-06-14T10:26:54;26.90;76.50
36424;DHT22;22458;45.328;9.514;2023-06-14T10:29:20;26.90;75.90
36424;DHT22;22458;45.328;9.514;2023-06-14T10:31:48;26.90;75.80
36424;DHT22;22458;45.328;9.514;2023-06-14T10:34:23;26.90;75.60
36424;DHT22;22458;45.328;9.514;2023-06-14T10:37:04;26.90;75.80
36424;DHT22;22458;45.328;9.514;2023-06-14T10:39:32;26.90;76.00
36424;DHT22;22458;45.328;9.514;2023-06-14T10:42:01;26.90;75.80
36424;DHT22;22458;45.328;9.514;2023-06-14T10:46:59;26.90;74.80
36424;DHT22;22458;45.328;9.514;2023-06-14T10:49:45;27.00;73.90
36424;DHT22;22458;45.328;9.514;2023-06-14T10:52:15;27.10;73.20
36424;DHT22;22458;45.328;9.514;2023-06-14T10:57:33;27.10;72.50
36424;DHT22;22458;45.328;9.514;2023-06-14T11:00:03;27.20;71.60
36424;DHT22;22458;45.328;9.514;2023-06-14T11:05:30;27.20;70.50
36424;DHT22;22458;45.328;9.514;2023-06-14T11:10:47;27.20;70.00
36424;DHT22;22458;45.328;9.514;2023-06-14T11:13:16;27.20;69.40
36424;DHT22;22458;45.328;9.514;2023-06-14T11:15:47;27.30;68.90
36424;DHT22;22458;45.328;9.514;2023-06-14T11:18:13;27.40;68.30
36424;DHT22;22458;45.328;9.514;2023-06-14T11:20:40;27.40;68.10
36424;DHT22;22458;45.328;9.514;2023-06-14T11:23:06;27.40;68.20
36424;DHT22;22458;45.328;9.514;2023-06-14T11:25:32;27.50;68.40
36424;DHT22;22458;45.328;9.514;2023-06-14T11:27:57;27.70;68.60
36424;DHT22;22458;45.328;9.514;2023-06-14T11:30:25;27.70;67.90
36424;DHT22;22458;45.328;9.514;2023-06-14T11:32:52;27.80;67.00
36424;DHT22;22458;45.328;9.514;2023-06-14T11:35:21;27.80;66.70
36424;DHT22;22458;45.328;9.514;2023-06-14T11:37:52;27.90;66.70
36424;DHT22;22458;45.328;9.514;2023-06-14T11:40:18;28.00;66.20
36424;DHT22;22458;45.328;9.514;2023-06-14T11:42:43;28.00;65.60
36424;DHT22;22458;45.328;9.514;2023-06-14T11:45:11;28.00;65.20
36424;DHT22;22458;45.328;9.514;2023-06-14T11:47:38;28.10;65.20
36424;DHT22;22458;45.328;9.514;2023-06-14T11:50:06;28.10;65.30
36424;DHT22;22458;45.328;9.514;2023-06-14T11:52:33;28.20;65.30
36424;DHT22;22458;45.328;9.514;2023-06-14T11:55:00;28.30;65.80
36424;DHT22;22458;45.328;9.514;2023-06-14T11:57:26;28.40;65.40
36424;DHT22;22458;45.328;9.514;2023-06-14T11:59:55;28.60;64.80
36424;DHT22;22458;45.328;9.514;2023-06-14T12:02:21;28.60;64.20
36424;DHT22;22458;45.328;9.514;2023-06-14T12:04:49;28.60;63.60
36424;DHT22;22458;45.328;9.514;2023-06-14T12:07:15;28.70;63.20
36424;DHT22;22458;45.328;9.514;2023-06-14T12:12:36;28.90;63.30
36424;DHT22;22458;45.328;9.514;2023-06-14T12:15:06;28.90;63.70
36424;DHT22;22458;45.328;9.514;2023-06-14T12:17:36;28.90;63.00
36424;DHT22;22458;45.328;9.514;2023-06-14T12:22:55;28.90;62.40
36424;DHT22;22458;45.328;9.514;2023-06-14T12:25:28;28.90;62.70
36424;DHT22;22458;45.328;9.514;2023-06-14T12:28:03;29.00;62.70
36424;DHT22;22458;45.328;9.514;2023-06-14T12:30:29;29.00;62.70
36424;DHT22;22458;45.328;9.514;2023-06-14T12:33:01;29.00;62.60
36424;DHT22;22458;45.328;9.514;2023-06-14T12:35:28;29.20;63.00
36424;DHT22;22458;45.328;9.514;2023-06-14T12:37:53;29.20;62.80
36424;DHT22;22458;45.328;9.514;2023-06-14T12:40:19;29.30;62.30
36424;DHT22;22458;45.328;9.514;2023-06-14T12:42:45;29.40;61.80
36424;DHT22;22458;45.328;9.514;2023-06-14T12:45:14;29.40;61.70
36424;DHT22;22458;45.328;9.514;2023-06-14T12:47:40;29.40;62.10
36424;DHT22;22458;45.328;9.514;2023-06-14T12:50:06;29.40;61.90
36424;DHT22;22458;45.328;9.514;2023-06-14T12:52:32;29.30;61.60
36424;DHT22;22458;45.328;9.514;2023-06-14T12:55:05;29.30;61.30
36424;DHT22;22458;45.328;9.514;2023-06-14T12:57:31;29.30;61.10
36424;DHT22;22458;45.328;9.514;2023-06-14T12:59:57;29.30;60.90
36424;DHT22;22458;45.328;9.514;2023-06-14T13:02:23;29.30;60.90
36424;DHT22;22458;45.328;9.514;2023-06-14T13:04:50;29.30;61.10
36424;DHT22;22458;45.328;9.514;2023-06-14T13:07:16;29.40;61.20
36424;DHT22;22458;45.328;9.514;2023-06-14T13:09:42;29.40;61.10
36424;DHT22;22458;45.328;9.514;2023-06-14T13:12:10;29.40;60.60
36424;DHT22;22458;45.328;9.514;2023-06-14T13:14:37;29.30;60.30
36424;DHT22;22458;45.328;9.514;2023-06-14T13:17:02;29.30;60.00
36424;DHT22;22458;45.328;9.514;2023-06-14T13:19:28;29.30;60.00
36424;DHT22;22458;45.328;9.514;2023-06-14T13:21:54;29.30;60.20
36424;DHT22;22458;45.328;9.514;2023-06-14T13:24:20;29.20;60.40
36424;DHT22;22458;45.328;9.514;2023-06-14T13:26:46;29.20;60.60
36424;DHT22;22458;45.328;9.514;2023-06-14T13:29:15;29.20;60.70
36424;DHT22;22458;45.328;9.514;2023-06-14T13:31:40;29.30;60.90
36424;DHT22;22458;45.328;9.514;2023-06-14T13:34:06;29.30;61.10
36424;DHT22;22458;45.328;9.514;2023-06-14T13:36:32;29.40;61.10
36424;DHT22;22458;45.328;9.514;2023-06-14T13:38:58;29.30;60.90
36424;DHT22;22458;45.328;9.514;2023-06-14T13:41:26;29.30;60.90
36424;DHT22;22458;45.328;9.514;2023-06-14T13:43:57;29.30;61.00
36424;DHT22;22458;45.328;9.514;2023-06-14T13:46:24;29.40;61.00
36424;DHT22;22458;45.328;9.514;2023-06-14T13:48:49;29.50;61.30
36424;DHT22;22458;45.328;9.514;2023-06-14T13:51:15;29.60;60.30
36424;DHT22;22458;45.328;9.514;2023-06-14T13:53:45;29.60;60.20
36424;DHT22;22458;45.328;9.514;2023-06-14T13:56:10;29.70;60.40
36424;DHT22;22458;45.328;9.514;2023-06-14T13:58:38;29.70;60.50
36424;DHT22;22458;45.328;9.514;2023-06-14T14:01:03;29.70;60.20
36424;DHT22;22458;45.328;9.514;2023-06-14T14:03:30;29.70;60.40
36424;DHT22;22458;45.328;9.514;2023-06-14T14:05:56;29.70;60.50
36424;DHT22;22458;45.328;9.514;2023-06-14T14:08:22;29.80;60.40
36424;DHT22;22458;45.328;9.514;2023-06-14T14:10:47;29.90;60.00
36424;DHT22;22458;45.328;9.514;2023-06-14T14:13:13;29.90;59.70
36424;DHT22;22458;45.328;9.514;2023-06-14T14:15:40;29.90;59.60
36424;DHT22;22458;45.328;9.514;2023-06-14T14:18:05;30.00;59.40
36424;DHT22;22458;45.328;9.514;2023-06-14T14:20:31;30.10;59.40
36424;DHT22;22458;45.328;9.514;2023-06-14T14:22:57;30.10;59.30
36424;DHT22;22458;45.328;9.514;2023-06-14T14:25:22;30.20;59.20
36424;DHT22;22458;45.328;9.514;2023-06-14T14:27:48;30.10;59.20
36424;DHT22;22458;45.328;9.514;2023-06-14T14:30:14;30.00;59.30
36424;DHT22;22458;45.328;9.514;2023-06-14T14:32:42;30.00;59.50
36424;DHT22;22458;45.328;9.514;2023-06-14T14:35:08;30.10;59.40
36424;DHT22;22458;45.328;9.514;2023-06-14T14:37:34;30.10;59.40
36424;DHT22;22458;45.328;9.514;2023-06-14T14:40:00;30.10;59.20
36424;DHT22;22458;45.328;9.514;2023-06-14T14:42:26;30.10;59.30
36424;DHT22;22458;45.328;9.514;2023-06-14T14:44:52;30.20;59.20
36424;DHT22;22458;45.328;9.514;2023-06-14T14:47:18;30.30;58.90
36424;DHT22;22458;45.328;9.514;2023-06-14T14:49:43;30.40;58.30
36424;DHT22;22458;45.328;9.514;2023-06-14T14:52:09;30.50;57.80
36424;DHT22;22458;45.328;9.514;2023-06-14T14:54:37;30.60;57.40
36424;DHT22;22458;45.328;9.514;2023-06-14T14:57:03;30.70;56.90
36424;DHT22;22458;45.328;9.514;2023-06-14T14:59:29;30.80;56.60
36424;DHT22;22458;45.328;9.514;2023-06-14T15:01:55;30.70;56.30
36424;DHT22;22458;45.328;9.514;2023-06-14T15:04:21;30.70;56.10
36424;DHT22;22458;45.328;9.514;2023-06-14T15:06:46;30.70;56.00
36424;DHT22;22458;45.328;9.514;2023-06-14T15:09:12;30.70;56.20
36424;DHT22;22458;45.328;9.514;2023-06-14T15:11:38;30.70;56.30
36424;DHT22;22458;45.328;9.514;2023-06-14T15:14:03;30.70;56.40
36424;DHT22;22458;45.328;9.514;2023-06-14T15:16:29;30.70;56.40
36424;DHT22;22458;45.328;9.514;2023-06-14T15:18:55;30.70;56.50
36424;DHT22;22458;45.328;9.514;2023-06-14T15:21:20;30.70;57.10
36424;DHT22;22458;45.328;9.514;2023-06-14T15:23:48;30.70;57.30
36424;DHT22;22458;45.328;9.514;2023-06-14T15:26:13;30.80;57.50
36424;DHT22;22458;45.328;9.514;2023-06-14T15:28:39;30.70;57.60
36424;DHT22;22458;45.328;9.514;2023-06-14T15:31:05;30.70;57.70
36424;DHT22;22458;45.328;9.514;2023-06-14T15:33:31;30.60;57.70
36424;DHT22;22458;45.328;9.514;2023-06-14T15:35:57;30.60;57.50
36424;DHT22;22458;45.328;9.514;2023-06-14T15:38:23;30.60;57.40
36424;DHT22;22458;45.328;9.514;2023-06-14T15:40:48;30.50;57.20
36424;DHT22;22458;45.328;9.514;2023-06-14T15:43:14;30.40;57.10
36424;DHT22;22458;45.328;9.514;2023-06-14T15:45:40;30.40;57.10
36424;DHT22;22458;45.328;9.514;2023-06-14T15:48:06;30.40;57.20
36424;DHT22;22458;45.328;9.514;2023-06-14T15:50:32;30.30;57.50
36424;DHT22;22458;45.328;9.514;2023-06-14T15:52:57;30.30;57.80
36424;DHT22;22458;45.328;9.514;2023-06-14T15:55:23;30.40;58.00
36424;DHT22;22458;45.328;9.514;2023-06-14T15:57:49;30.40;58.10
36424;DHT22;22458;45.328;9.514;2023-06-14T16:00:15;30.50;58.10